createdAt,value
2019-05-16T00:00:45.564Z,6.83
2019-05-16T00:01:45.563Z,6.79
2019-05-16T00:02:45.583Z,6.87
2019-05-16T00:03:45.548Z,6.80
2019-05-16T00:04:48.183Z,6.94
2019-05-16T00:05:51.454Z,6.81
2019-05-16T00:06:45.539Z,6.89
2019-05-16T00:07:49.177Z,6.80
2019-05-16T00:08:47.886Z,6.80
2019-05-16T00:09:45.531Z,6.71
2019-05-16T00:10:45.520Z,6.68
2019-05-16T00:11:45.521Z,6.66
2019-05-16T00:12:45.551Z,6.56
2019-05-16T00:13:45.516Z,6.54
2019-05-16T00:14:45.512Z,6.62
2019-05-16T00:15:45.518Z,6.59
2019-05-16T00:16:45.501Z,6.59
2019-05-16T00:17:45.526Z,6.63
2019-05-16T00:18:47.771Z,6.56
2019-05-16T00:19:45.496Z,6.62
2019-05-16T00:20:45.490Z,6.69
2019-05-16T00:21:45.483Z,6.56
2019-05-16T00:22:45.513Z,6.58
2019-05-16T00:23:45.478Z,6.65
2019-05-16T00:24:45.477Z,6.51
2019-05-16T00:25:47.690Z,6.59
2019-05-16T00:26:47.860Z,6.50
2019-05-16T00:27:47.734Z,6.56
2019-05-16T00:28:45.467Z,6.51
2019-05-16T00:29:45.456Z,6.48
2019-05-16T00:30:45.453Z,6.40
2019-05-16T00:31:45.445Z,6.51
2019-05-16T00:32:47.729Z,6.53
2019-05-16T00:33:45.445Z,6.48
2019-05-16T00:34:47.675Z,6.50
2019-05-16T00:35:45.443Z,6.53
2019-05-16T00:36:45.430Z,6.59
2019-05-16T00:37:45.459Z,6.58
2019-05-16T00:38:45.420Z,6.54
2019-05-16T00:39:45.421Z,6.48
2019-05-16T00:40:45.440Z,6.51
2019-05-16T00:41:47.762Z,6.53
2019-05-16T00:42:45.421Z,6.58
2019-05-16T00:43:45.437Z,6.56
2019-05-16T00:44:47.695Z,6.58
2019-05-16T00:45:45.405Z,6.56
2019-05-16T00:46:45.405Z,6.62
2019-05-16T00:47:47.776Z,6.73
2019-05-16T00:48:45.427Z,6.80
2019-05-16T00:49:47.818Z,6.83
2019-05-16T00:50:45.386Z,6.87
2019-05-16T00:51:45.377Z,6.97
2019-05-16T00:52:45.373Z,6.95
2019-05-16T00:53:45.395Z,6.97
2019-05-16T00:54:45.366Z,6.95
2019-05-16T00:55:45.367Z,6.97
2019-05-16T00:56:45.359Z,7.02
2019-05-16T00:57:45.359Z,6.95
2019-05-16T00:58:45.378Z,6.94
2019-05-16T00:59:45.429Z,6.90
2019-05-16T01:00:45.351Z,6.90
2019-05-16T01:01:45.342Z,6.97
2019-05-16T01:02:45.340Z,6.95
2019-05-16T01:03:45.362Z,6.97
2019-05-16T01:04:45.330Z,6.99
2019-05-16T01:05:45.326Z,6.94
2019-05-16T01:06:45.320Z,7.01
2019-05-16T01:07:45.318Z,7.09
2019-05-16T01:08:45.342Z,7.15
2019-05-16T01:09:45.311Z,7.12
2019-05-16T01:10:45.315Z,7.13
2019-05-16T01:11:45.306Z,7.19
2019-05-16T01:12:45.310Z,7.20
2019-05-16T01:13:45.331Z,7.13
2019-05-16T01:14:45.290Z,7.12
2019-05-16T01:15:45.292Z,7.09
2019-05-16T01:16:45.970Z,7.15
2019-05-16T01:17:45.284Z,7.24
2019-05-16T01:18:45.311Z,7.16
2019-05-16T01:19:45.282Z,7.23
2019-05-16T01:20:45.275Z,7.26
2019-05-16T01:21:45.271Z,7.23
2019-05-16T01:22:45.265Z,7.32
2019-05-16T01:23:45.294Z,7.29
2019-05-16T01:24:45.254Z,7.23
2019-05-16T01:25:45.263Z,7.19
2019-05-16T01:26:45.252Z,7.17
2019-05-16T01:27:47.594Z,7.13
2019-05-16T01:28:45.277Z,7.23
2019-05-16T01:29:47.357Z,7.15
2019-05-16T01:30:45.241Z,7.20
2019-05-16T01:31:45.232Z,7.15
2019-05-16T01:32:45.256Z,7.19
2019-05-16T01:33:45.255Z,7.09
2019-05-16T01:34:45.235Z,7.13
2019-05-16T01:35:45.223Z,7.12
2019-05-16T01:36:45.251Z,7.12
2019-05-16T01:37:45.211Z,7.08
2019-05-16T01:38:45.237Z,7.02
2019-05-16T01:39:45.210Z,7.08
2019-05-16T01:40:45.206Z,7.05
2019-05-16T01:41:45.203Z,6.97
2019-05-16T01:42:45.200Z,7.05
2019-05-16T01:43:45.225Z,6.97
2019-05-16T01:44:45.188Z,7.09
2019-05-16T01:45:45.188Z,6.98
2019-05-16T01:46:45.189Z,7.01
2019-05-16T01:47:45.178Z,6.97
2019-05-16T01:48:45.208Z,6.99
2019-05-16T01:49:45.178Z,6.97
2019-05-16T01:50:45.169Z,6.94
2019-05-16T01:51:45.165Z,6.87
2019-05-16T01:52:45.165Z,6.95
2019-05-16T01:53:45.189Z,6.90
2019-05-16T01:54:45.163Z,6.90
2019-05-16T01:55:45.149Z,6.91
2019-05-16T01:56:45.149Z,6.98
2019-05-16T01:57:45.145Z,6.95
2019-05-16T01:58:45.173Z,6.98
2019-05-16T01:59:45.144Z,6.90
2019-05-16T02:00:52.771Z,6.86
2019-05-16T02:01:45.129Z,6.89
2019-05-16T02:02:45.131Z,6.90
2019-05-16T02:03:45.159Z,6.87
2019-05-16T02:04:45.239Z,6.91
2019-05-16T02:05:45.122Z,6.81
2019-05-16T02:06:51.606Z,6.86
2019-05-16T02:07:45.115Z,6.81
2019-05-16T02:08:45.130Z,6.79
2019-05-16T02:09:45.109Z,6.77
2019-05-16T02:10:45.107Z,6.87
2019-05-16T02:11:45.097Z,6.79
2019-05-16T02:12:45.097Z,6.81
2019-05-16T02:13:45.117Z,6.71
2019-05-16T02:14:45.090Z,6.73
2019-05-16T02:15:45.092Z,6.66
2019-05-16T02:16:45.078Z,6.71
2019-05-16T02:17:45.073Z,6.72
2019-05-16T02:18:45.116Z,6.73
2019-05-16T02:19:45.068Z,6.66
2019-05-16T02:20:45.074Z,6.73
2019-05-16T02:21:45.059Z,6.80
2019-05-16T02:22:45.060Z,6.71
2019-05-16T02:23:45.088Z,6.66
2019-05-16T02:24:45.048Z,6.51
2019-05-16T02:25:45.047Z,6.58
2019-05-16T02:26:45.058Z,6.53
2019-05-16T02:27:45.037Z,6.40
2019-05-16T02:28:45.069Z,6.40
2019-05-16T02:29:45.060Z,6.38
2019-05-16T02:30:45.032Z,6.41
2019-05-16T02:31:45.024Z,6.41
2019-05-16T02:32:45.029Z,6.32
2019-05-16T02:33:45.022Z,6.29
2019-05-16T02:34:45.041Z,6.28
2019-05-16T02:35:45.016Z,6.21
2019-05-16T02:36:45.009Z,6.16
2019-05-16T02:37:45.004Z,6.11
2019-05-16T02:38:44.998Z,6.03
2019-05-16T02:39:45.030Z,5.98
2019-05-16T02:40:44.994Z,6.03
2019-05-16T02:41:46.150Z,5.93
2019-05-16T02:42:44.982Z,6.03
2019-05-16T02:43:45.015Z,6.00
2019-05-16T02:44:44.975Z,6.00
2019-05-16T02:45:44.972Z,6.04
2019-05-16T02:46:44.969Z,6.03
2019-05-16T02:47:44.963Z,5.98
2019-05-16T02:48:44.997Z,5.96
2019-05-16T02:49:44.984Z,6.03
2019-05-16T02:50:44.955Z,6.00
2019-05-16T02:51:44.951Z,6.09
2019-05-16T02:52:44.949Z,6.10
2019-05-16T02:53:44.945Z,6.13
2019-05-16T02:54:44.962Z,6.11
2019-05-16T02:55:44.934Z,6.09
2019-05-16T02:56:44.932Z,6.10
2019-05-16T02:57:44.929Z,6.09
2019-05-16T02:58:45.244Z,6.13
2019-05-16T02:59:44.949Z,6.09
2019-05-16T03:00:44.919Z,6.01
2019-05-16T03:01:44.913Z,6.11
2019-05-16T03:02:44.908Z,6.14
2019-05-16T03:03:44.909Z,6.14
2019-05-16T03:04:44.927Z,6.16
2019-05-16T03:05:44.929Z,6.18
2019-05-16T03:06:44.892Z,6.16
2019-05-16T03:07:47.075Z,6.16
2019-05-16T03:08:44.884Z,6.33
2019-05-16T03:09:44.887Z,6.33
2019-05-16T03:10:44.902Z,6.33
2019-05-16T03:11:44.884Z,6.35
2019-05-16T03:12:44.868Z,6.35
2019-05-16T03:13:44.865Z,6.38
2019-05-16T03:14:44.889Z,6.29
2019-05-16T03:15:44.883Z,6.26
2019-05-16T03:16:44.855Z,6.41
2019-05-16T03:17:44.850Z,6.35
2019-05-16T03:18:44.845Z,6.35
2019-05-16T03:19:44.842Z,6.40
2019-05-16T03:20:44.866Z,6.38
2019-05-16T03:21:44.839Z,6.46
2019-05-16T03:22:44.831Z,6.43
2019-05-16T03:23:44.825Z,6.36
2019-05-16T03:24:44.826Z,6.40
2019-05-16T03:25:44.851Z,6.43
2019-05-16T03:26:44.810Z,6.36
2019-05-16T03:27:44.812Z,6.36
2019-05-16T03:28:44.810Z,6.33
2019-05-16T03:29:44.806Z,6.40
2019-05-16T03:30:45.512Z,6.40
2019-05-16T03:31:45.576Z,6.35
2019-05-16T03:32:46.101Z,6.35
2019-05-16T03:33:56.260Z,6.36
2019-05-16T03:34:44.821Z,6.29
2019-05-16T03:35:45.245Z,6.38
2019-05-16T03:36:44.774Z,6.33
2019-05-16T03:37:54.929Z,6.30
2019-05-16T03:38:44.766Z,6.35
2019-05-16T03:39:44.771Z,6.36
2019-05-16T03:40:44.789Z,6.32
2019-05-16T03:41:44.752Z,6.32
2019-05-16T03:42:44.749Z,6.29
2019-05-16T03:43:44.747Z,6.38
2019-05-16T03:44:44.744Z,6.30
2019-05-16T03:45:44.769Z,6.33
2019-05-16T03:46:44.734Z,6.35
2019-05-16T03:47:44.732Z,6.35
2019-05-16T03:48:44.724Z,6.29
2019-05-16T03:49:44.723Z,6.28
2019-05-16T03:50:44.742Z,6.30
2019-05-16T03:51:44.715Z,6.11
2019-05-16T03:52:44.711Z,6.26
2019-05-16T03:53:44.717Z,6.26
2019-05-16T03:54:44.705Z,6.36
2019-05-16T03:55:44.727Z,6.35
2019-05-16T03:56:44.694Z,6.46
2019-05-16T03:57:44.691Z,6.43
2019-05-16T03:58:44.689Z,6.38
2019-05-16T03:59:44.687Z,6.51
2019-05-16T04:00:45.705Z,6.51
2019-05-16T04:01:44.703Z,6.54
2019-05-16T04:02:45.805Z,6.54
2019-05-16T04:03:44.667Z,6.50
2019-05-16T04:04:44.917Z,6.48
2019-05-16T04:05:44.660Z,6.44
2019-05-16T04:06:44.684Z,6.56
2019-05-16T04:07:44.653Z,6.56
2019-05-16T04:08:44.651Z,6.58
2019-05-16T04:09:44.648Z,6.51
2019-05-16T04:10:44.641Z,6.51
2019-05-16T04:11:44.659Z,6.54
2019-05-16T04:12:44.631Z,6.63
2019-05-16T04:13:44.627Z,6.56
2019-05-16T04:14:44.620Z,6.58
2019-05-16T04:15:44.616Z,6.63
2019-05-16T04:16:44.647Z,6.63
2019-05-16T04:17:44.613Z,6.62
2019-05-16T04:18:44.608Z,6.63
2019-05-16T04:19:44.606Z,6.58
2019-05-16T04:20:44.600Z,6.62
2019-05-16T04:21:44.629Z,6.62
2019-05-16T04:22:44.588Z,6.62
2019-05-16T04:23:44.599Z,6.62
2019-05-16T04:24:44.808Z,6.63
2019-05-16T04:25:44.576Z,6.62
2019-05-16T04:26:44.614Z,6.54
2019-05-16T04:27:44.571Z,6.65
2019-05-16T04:28:44.564Z,6.63
2019-05-16T04:29:44.571Z,6.68
2019-05-16T04:30:44.564Z,6.68
2019-05-16T04:31:44.585Z,6.72
2019-05-16T04:32:44.552Z,6.69
2019-05-16T04:33:44.551Z,6.66
2019-05-16T04:34:44.553Z,6.66
2019-05-16T04:35:44.549Z,6.69
2019-05-16T04:36:44.576Z,6.76
2019-05-16T04:37:44.530Z,6.65
2019-05-16T04:38:46.825Z,6.66
2019-05-16T04:39:44.528Z,6.62
2019-05-16T04:40:44.519Z,6.51
2019-05-16T04:41:44.549Z,6.62
2019-05-16T04:42:44.546Z,6.65
2019-05-16T04:43:44.510Z,6.69
2019-05-16T04:44:45.496Z,6.63
2019-05-16T04:45:44.516Z,6.65
2019-05-16T04:46:44.508Z,6.63
2019-05-16T04:47:44.526Z,6.71
2019-05-16T04:48:44.493Z,6.81
2019-05-16T04:49:44.490Z,6.83
2019-05-16T04:50:44.491Z,6.81
2019-05-16T04:51:44.483Z,6.81
2019-05-16T04:52:44.505Z,6.91
2019-05-16T04:53:44.471Z,6.76
2019-05-16T04:54:44.477Z,6.94
2019-05-16T04:55:44.461Z,6.91
2019-05-16T04:56:44.466Z,7.01
2019-05-16T04:57:44.498Z,6.89
2019-05-16T04:58:44.454Z,6.97
2019-05-16T04:59:44.459Z,7.02
2019-05-16T05:00:44.455Z,6.98
2019-05-16T05:01:44.448Z,7.07
2019-05-16T05:02:44.471Z,7.07
2019-05-16T05:04:00.191Z,7.07
2019-05-16T05:04:45.411Z,6.99
2019-05-16T05:05:44.432Z,7.04
2019-05-16T05:06:44.430Z,7.13
2019-05-16T05:07:44.458Z,7.09
2019-05-16T05:08:53.936Z,7.16
2019-05-16T05:09:44.421Z,7.15
2019-05-16T05:10:44.415Z,7.20
2019-05-16T05:11:44.411Z,7.20
2019-05-16T05:12:44.438Z,7.29
2019-05-16T05:13:44.411Z,7.35
2019-05-16T05:14:44.409Z,7.35
2019-05-16T05:15:44.396Z,7.29
2019-05-16T05:16:44.393Z,7.29
2019-05-16T05:17:44.425Z,7.41
2019-05-16T05:18:44.387Z,7.32
2019-05-16T05:19:44.392Z,7.44
2019-05-16T05:20:44.388Z,7.42
2019-05-16T05:21:44.380Z,7.34
2019-05-16T05:22:44.407Z,7.47
2019-05-16T05:23:44.375Z,7.47
2019-05-16T05:24:44.368Z,7.47
2019-05-16T05:25:44.369Z,7.47
2019-05-16T05:26:44.363Z,7.45
2019-05-16T05:27:44.387Z,7.42
2019-05-16T05:28:44.355Z,7.41
2019-05-16T05:29:44.350Z,7.37
2019-05-16T05:30:44.355Z,7.38
2019-05-16T05:31:45.584Z,7.35
2019-05-16T05:32:44.379Z,7.31
2019-05-16T05:33:44.343Z,7.29
2019-05-16T05:34:44.331Z,7.16
2019-05-16T05:35:44.347Z,7.15
2019-05-16T05:36:44.341Z,7.19
2019-05-16T05:37:44.363Z,7.16
2019-05-16T05:38:44.320Z,7.13
2019-05-16T05:39:44.319Z,7.20
2019-05-16T05:40:44.311Z,7.13
2019-05-16T05:41:44.318Z,7.08
2019-05-16T05:42:44.353Z,7.13
2019-05-16T05:43:44.305Z,7.09
2019-05-16T05:44:44.448Z,7.15
2019-05-16T05:45:44.296Z,7.17
2019-05-16T05:46:44.314Z,7.13
2019-05-16T05:47:44.327Z,7.24
2019-05-16T05:48:44.293Z,7.29
2019-05-16T05:49:44.288Z,7.32
2019-05-16T05:50:44.281Z,7.29
2019-05-16T05:51:44.279Z,7.27
2019-05-16T05:52:46.164Z,7.29
2019-05-16T05:53:44.275Z,7.20
2019-05-16T05:54:44.269Z,7.19
2019-05-16T05:55:44.268Z,7.27
2019-05-16T05:56:44.266Z,7.34
2019-05-16T05:57:44.291Z,7.38
2019-05-16T05:58:44.255Z,7.35
2019-05-16T05:59:44.255Z,7.27
2019-05-16T06:00:44.255Z,7.24
2019-05-16T06:01:44.249Z,7.29
2019-05-16T06:02:44.268Z,7.34
2019-05-16T06:03:44.242Z,7.31
2019-05-16T06:04:44.237Z,7.40
2019-05-16T06:05:44.236Z,7.32
2019-05-16T06:06:45.067Z,7.27
2019-05-16T06:07:44.265Z,7.38
2019-05-16T06:08:44.229Z,7.37
2019-05-16T06:09:53.641Z,7.34
2019-05-16T06:10:44.220Z,7.26
2019-05-16T06:11:44.220Z,7.26
2019-05-16T06:12:44.239Z,7.16
2019-05-16T06:13:44.210Z,7.19
2019-05-16T06:14:44.203Z,7.27
2019-05-16T06:15:44.207Z,7.41
2019-05-16T06:16:44.202Z,7.37
2019-05-16T06:17:44.239Z,7.37
2019-05-16T06:18:44.204Z,7.35
2019-05-16T06:19:44.190Z,7.35
2019-05-16T06:20:44.186Z,7.41
2019-05-16T06:21:45.455Z,7.37
2019-05-16T06:22:44.209Z,7.27
2019-05-16T06:23:44.185Z,7.31
2019-05-16T06:24:44.175Z,7.17
2019-05-16T06:25:44.177Z,7.27
2019-05-16T06:26:44.177Z,7.31
2019-05-16T06:27:44.214Z,7.31
2019-05-16T06:28:44.162Z,7.42
2019-05-16T06:29:44.164Z,7.29
2019-05-16T06:30:44.153Z,7.37
2019-05-16T06:31:44.154Z,7.15
2019-05-16T06:32:44.174Z,7.01
2019-05-16T06:33:44.171Z,7.05
2019-05-16T06:34:44.142Z,6.91
2019-05-16T06:35:44.138Z,6.87
2019-05-16T06:36:44.138Z,6.79
2019-05-16T06:37:44.142Z,6.86
2019-05-16T06:38:44.173Z,6.89
2019-05-16T06:39:45.488Z,6.77
2019-05-16T06:40:44.122Z,6.84
2019-05-16T06:41:44.125Z,6.79
2019-05-16T06:42:44.152Z,6.68
2019-05-16T06:43:44.115Z,6.69
2019-05-16T06:44:44.115Z,6.68
2019-05-16T06:45:44.106Z,6.63
2019-05-16T06:47:00.279Z,6.69
2019-05-16T06:47:44.134Z,6.66
2019-05-16T06:48:44.102Z,6.66
2019-05-16T06:49:44.093Z,6.61
2019-05-16T06:50:44.091Z,6.65
2019-05-16T06:51:44.084Z,6.58
2019-05-16T06:52:45.837Z,6.63
2019-05-16T06:53:44.081Z,6.53
2019-05-16T06:54:44.072Z,6.54
2019-05-16T06:55:44.076Z,6.51
2019-05-16T06:56:44.087Z,6.54
2019-05-16T06:57:44.095Z,6.59
2019-05-16T06:58:48.232Z,6.50
2019-05-16T06:59:44.055Z,6.59
2019-05-16T07:00:44.055Z,6.68
2019-05-16T07:01:44.051Z,6.84
2019-05-16T07:02:44.079Z,6.76
2019-05-16T07:03:44.083Z,6.87
2019-05-16T07:04:44.043Z,6.83
2019-05-16T07:05:44.040Z,6.76
2019-05-16T07:06:57.914Z,6.83
2019-05-16T07:07:44.028Z,6.79
2019-05-16T07:08:44.058Z,6.76
2019-05-16T07:09:57.289Z,6.84
2019-05-16T07:10:44.038Z,6.81
2019-05-16T07:11:44.011Z,6.91
2019-05-16T07:12:44.037Z,6.94
2019-05-16T07:13:44.011Z,6.98
2019-05-16T07:14:44.007Z,6.95
2019-05-16T07:15:44.004Z,7.08
2019-05-16T07:16:44.003Z,6.98
2019-05-16T07:17:44.023Z,7.12
2019-05-16T07:18:44.014Z,7.09
2019-05-16T07:19:43.995Z,7.07
2019-05-16T07:20:44.004Z,7.12
2019-05-16T07:21:43.984Z,7.16
2019-05-16T07:22:44.008Z,7.32
2019-05-16T07:23:44.004Z,7.34
2019-05-16T07:24:43.981Z,7.31
2019-05-16T07:25:43.969Z,7.38
2019-05-16T07:26:43.971Z,7.31
2019-05-16T07:27:43.960Z,7.19
2019-05-16T07:28:43.989Z,7.13
2019-05-16T07:29:43.956Z,7.22
2019-05-16T07:30:43.960Z,7.32
2019-05-16T07:31:43.952Z,7.44
2019-05-16T07:32:43.976Z,7.38
2019-05-16T07:33:43.944Z,7.45
2019-05-16T07:34:43.983Z,7.49
2019-05-16T07:35:43.945Z,7.52
2019-05-16T07:36:43.936Z,7.50
2019-05-16T07:37:43.940Z,7.50
2019-05-16T07:38:43.961Z,7.59
2019-05-16T07:39:43.945Z,7.60
2019-05-16T07:40:43.923Z,7.58
2019-05-16T07:41:43.918Z,7.69
2019-05-16T07:42:43.921Z,7.63
2019-05-16T07:43:43.941Z,7.56
2019-05-16T07:44:43.913Z,7.58
2019-05-16T07:45:43.909Z,7.60
2019-05-16T07:46:44.705Z,7.59
2019-05-16T07:47:43.902Z,7.58
2019-05-16T07:48:43.940Z,7.52
2019-05-16T07:49:43.929Z,7.47
2019-05-16T07:50:43.899Z,7.47
2019-05-16T07:51:43.892Z,7.37
2019-05-16T07:52:43.893Z,7.34
2019-05-16T07:53:43.891Z,7.26
2019-05-16T07:54:43.909Z,7.20
2019-05-16T07:55:43.877Z,7.19
2019-05-16T07:56:43.877Z,7.20
2019-05-16T07:57:43.873Z,7.16
2019-05-16T07:58:43.872Z,7.17
2019-05-16T07:59:43.893Z,7.16
2019-05-16T08:00:52.534Z,7.12
2019-05-16T08:01:44.417Z,7.05
2019-05-16T08:02:43.858Z,7.09
2019-05-16T08:03:44.107Z,7.05
2019-05-16T08:04:43.878Z,7.12
2019-05-16T08:05:43.851Z,7.08
2019-05-16T08:06:46.691Z,7.01
2019-05-16T08:07:43.838Z,7.08
2019-05-16T08:08:43.858Z,6.99
2019-05-16T08:09:43.872Z,7.05
2019-05-16T08:10:46.659Z,7.05
2019-05-16T08:11:43.832Z,6.95
2019-05-16T08:12:43.841Z,6.90
2019-05-16T08:13:43.826Z,6.87
2019-05-16T08:14:43.846Z,6.90
2019-05-16T08:15:43.845Z,6.98
2019-05-16T08:16:43.826Z,6.97
2019-05-16T08:17:44.598Z,7.02
2019-05-16T08:18:45.179Z,6.95
2019-05-16T08:19:43.809Z,6.94
2019-05-16T08:20:43.836Z,6.81
2019-05-16T08:21:43.915Z,6.80
2019-05-16T08:22:43.796Z,6.87
2019-05-16T08:23:43.795Z,6.76
2019-05-16T08:24:43.790Z,6.81
2019-05-16T08:25:43.814Z,7.02
2019-05-16T08:26:43.780Z,6.99
2019-05-16T08:27:43.778Z,6.99
2019-05-16T08:28:43.786Z,6.94
2019-05-16T08:29:43.775Z,6.91
2019-05-16T08:30:43.795Z,6.89
2019-05-16T08:31:43.764Z,6.94
2019-05-16T08:32:43.762Z,6.91
2019-05-16T08:33:43.767Z,6.97
2019-05-16T08:34:43.759Z,6.90
2019-05-16T08:35:43.793Z,6.80
2019-05-16T08:36:43.746Z,7.02
2019-05-16T08:37:46.976Z,6.91
2019-05-16T08:38:44.538Z,6.84
2019-05-16T08:39:43.792Z,7.01
2019-05-16T08:41:04.696Z,6.98
2019-05-16T08:41:43.872Z,6.99
2019-05-16T08:42:43.724Z,7.09
2019-05-16T08:43:43.736Z,7.23
2019-05-16T08:44:43.752Z,7.23
2019-05-16T08:45:43.752Z,7.27
2019-05-16T08:46:43.719Z,7.12
2019-05-16T08:47:43.746Z,7.23
2019-05-16T08:48:43.709Z,7.32
2019-05-16T08:49:43.732Z,7.29
2019-05-16T08:50:50.279Z,7.38
2019-05-16T08:51:43.706Z,7.50
2019-05-16T08:52:44.087Z,7.60
2019-05-16T08:53:43.783Z,7.69
2019-05-16T08:54:44.203Z,7.71
2019-05-16T08:55:44.091Z,7.81
2019-05-16T08:56:44.603Z,7.67
2019-05-16T08:57:43.689Z,7.62
2019-05-16T08:58:43.673Z,7.63
2019-05-16T08:59:43.729Z,7.74
2019-05-16T09:00:43.797Z,7.85
2019-05-16T09:01:51.970Z,7.81
2019-05-16T09:02:43.846Z,7.90
2019-05-16T09:03:43.665Z,7.89
2019-05-16T09:05:43.700Z,7.78
2019-05-16T09:06:43.658Z,7.99
2019-05-16T09:07:43.677Z,7.99
2019-05-16T09:08:43.657Z,7.75
2019-05-16T09:10:30.922Z,7.94
2019-05-16T09:10:34.428Z,7.77
2019-05-16T09:10:55.757Z,7.75
2019-05-16T09:11:48.428Z,7.82
2019-05-16T09:12:43.640Z,7.87
2019-05-16T09:13:43.642Z,7.93
2019-05-16T09:14:43.642Z,8.00
2019-05-16T09:15:43.629Z,7.96
2019-05-16T09:16:43.710Z,7.94
2019-05-16T09:17:43.627Z,7.99
2019-05-16T09:18:45.935Z,7.96
2019-05-16T09:19:43.624Z,8.04
2019-05-16T09:20:43.614Z,7.96
2019-05-16T09:21:43.660Z,7.93
2019-05-16T09:22:43.610Z,7.92
2019-05-16T09:23:43.697Z,7.90
2019-05-16T09:24:43.605Z,7.87
2019-05-16T09:25:43.649Z,7.94
2019-05-16T09:26:43.601Z,7.90
2019-05-16T09:27:43.626Z,7.94
2019-05-16T09:28:43.639Z,7.93
2019-05-16T09:29:43.590Z,7.97
2019-05-16T09:30:43.596Z,8.07
2019-05-16T09:32:06.369Z,8.14
2019-05-16T09:32:43.602Z,8.02
2019-05-16T09:33:43.614Z,8.11
2019-05-16T09:34:43.579Z,8.12
2019-05-16T09:35:43.599Z,8.12
2019-05-16T09:36:43.602Z,8.04
2019-05-16T09:37:43.574Z,8.14
2019-05-16T09:38:43.570Z,8.07
2019-05-16T09:39:43.566Z,8.12
2019-05-16T09:40:43.598Z,7.99
2019-05-16T09:41:53.958Z,7.85
2019-05-16T09:42:43.582Z,7.93
2019-05-16T09:43:43.562Z,7.85
2019-05-16T09:44:43.555Z,7.82
2019-05-16T09:45:43.549Z,7.78
2019-05-16T09:46:43.542Z,7.71
2019-05-16T09:47:43.574Z,7.78
2019-05-16T09:48:43.557Z,7.79
2019-05-16T09:49:43.538Z,7.74
2019-05-16T09:50:43.536Z,7.82
2019-05-16T09:51:43.573Z,7.79
2019-05-16T09:52:43.564Z,7.97
2019-05-16T09:53:43.537Z,8.14
2019-05-16T09:54:43.537Z,8.21
2019-05-16T09:55:43.523Z,8.35
2019-05-16T09:56:43.527Z,8.55
2019-05-16T09:57:43.552Z,8.60
2019-05-16T09:58:43.523Z,8.83
2019-05-16T09:59:43.515Z,8.90
2019-05-16T10:00:43.520Z,8.93
2019-05-16T10:01:43.512Z,8.97
2019-05-16T10:02:43.533Z,9.06
2019-05-16T10:03:43.501Z,9.09
2019-05-16T10:04:43.504Z,8.93
2019-05-16T10:05:43.501Z,9.10
2019-05-16T10:06:43.495Z,9.04
2019-05-16T10:07:43.525Z,9.23
2019-05-16T10:08:43.492Z,9.32
2019-05-16T10:09:47.024Z,9.28
2019-05-16T10:10:43.487Z,9.28
2019-05-16T10:11:43.515Z,9.24
2019-05-16T10:12:43.507Z,9.32
2019-05-16T10:13:43.493Z,9.28
2019-05-16T10:14:43.480Z,9.28
2019-05-16T10:15:43.477Z,9.24
2019-05-16T10:16:43.480Z,9.21
2019-05-16T10:17:43.502Z,9.10
2019-05-16T10:18:43.472Z,9.15
2019-05-16T10:19:43.476Z,9.01
2019-05-16T10:20:43.478Z,8.87
2019-05-16T10:21:43.591Z,8.86
2019-05-16T10:22:43.494Z,8.88
2019-05-16T10:23:43.464Z,8.84
2019-05-16T10:24:43.464Z,8.86
2019-05-16T10:25:43.465Z,8.87
2019-05-16T10:26:43.452Z,8.96
2019-05-16T10:27:43.485Z,8.90
2019-05-16T10:28:43.464Z,8.76
2019-05-16T10:29:43.454Z,8.63
2019-05-16T10:30:43.445Z,8.58
2019-05-16T10:31:49.276Z,8.66
2019-05-16T10:32:43.481Z,8.65
2019-05-16T10:33:43.445Z,8.63
2019-05-16T10:34:43.448Z,8.73
2019-05-16T10:35:43.447Z,8.68
2019-05-16T10:36:43.452Z,8.76
2019-05-16T10:37:43.467Z,8.62
2019-05-16T10:38:43.431Z,8.54
2019-05-16T10:39:43.430Z,8.65
2019-05-16T10:40:43.433Z,8.57
2019-05-16T10:41:43.436Z,8.58
2019-05-16T10:42:43.453Z,8.60
2019-05-16T10:43:43.424Z,8.71
2019-05-16T10:44:43.421Z,8.71
2019-05-16T10:45:43.421Z,8.81
2019-05-16T10:46:43.421Z,8.90
2019-05-16T10:47:43.449Z,8.94
2019-05-16T10:48:43.409Z,8.88
2019-05-16T10:49:43.413Z,8.96
2019-05-16T10:50:43.489Z,8.99
2019-05-16T10:51:43.477Z,9.13
2019-05-16T10:52:43.432Z,9.09
2019-05-16T10:54:04.471Z,9.12
2019-05-16T10:54:55.328Z,9.09
2019-05-16T10:55:43.410Z,9.02
2019-05-16T10:56:43.459Z,9.09
2019-05-16T10:57:43.503Z,8.96
2019-05-16T10:59:03.989Z,8.91
2019-05-16T11:00:08.945Z,8.93
2019-05-16T11:01:07.903Z,8.79
2019-05-16T11:01:43.429Z,8.75
2019-05-16T11:02:43.427Z,8.90
2019-05-16T11:03:43.410Z,8.86
2019-05-16T11:04:57.308Z,8.87
2019-05-16T11:05:43.377Z,8.73
2019-05-16T11:06:43.374Z,8.72
2019-05-16T11:07:43.411Z,8.73
2019-05-16T11:08:43.402Z,8.75
2019-05-16T11:09:54.934Z,8.78
2019-05-16T11:10:43.401Z,8.63
2019-05-16T11:11:43.370Z,8.71
2019-05-16T11:12:50.247Z,8.75
2019-05-16T11:13:43.409Z,8.87
2019-05-16T11:14:43.359Z,8.86
2019-05-16T11:15:43.350Z,8.94
2019-05-16T11:16:43.359Z,9.05
2019-05-16T11:17:43.357Z,9.09
2019-05-16T11:18:43.390Z,9.28
2019-05-16T11:19:43.349Z,9.30
2019-05-16T11:20:45.890Z,9.45
2019-05-16T11:21:43.348Z,9.40
2019-05-16T11:22:43.340Z,9.50
2019-05-16T11:23:43.366Z,9.66
2019-05-16T11:24:43.445Z,9.58
2019-05-16T11:25:43.339Z,9.57
2019-05-16T11:26:43.338Z,9.52
2019-05-16T11:27:43.369Z,9.48
2019-05-16T11:28:43.330Z,9.38
2019-05-16T11:29:43.360Z,9.40
2019-05-16T11:30:43.328Z,9.39
2019-05-16T11:31:43.324Z,9.42
2019-05-16T11:32:43.331Z,9.39
2019-05-16T11:33:43.340Z,9.46
2019-05-16T11:34:43.344Z,9.56
2019-05-16T11:35:43.320Z,9.49
2019-05-16T11:36:43.325Z,9.52
2019-05-16T11:37:43.348Z,9.46
2019-05-16T11:38:43.319Z,9.28
2019-05-16T11:39:43.347Z,9.24
2019-05-16T11:40:43.933Z,9.28
2019-05-16T11:41:43.311Z,9.27
2019-05-16T11:42:43.304Z,9.32
2019-05-16T11:43:43.301Z,9.25
2019-05-16T11:44:43.330Z,9.28
2019-05-16T11:45:43.310Z,9.13
2019-05-16T11:46:43.299Z,9.09
2019-05-16T11:47:43.300Z,9.12
2019-05-16T11:48:43.327Z,9.13
2019-05-16T11:49:43.297Z,9.09
2019-05-16T11:50:43.295Z,9.09
2019-05-16T11:51:43.296Z,9.16
2019-05-16T11:52:43.316Z,9.24
2019-05-16T11:53:43.287Z,9.21
2019-05-16T11:54:43.314Z,9.27
2019-05-16T11:55:51.752Z,9.18
2019-05-16T11:56:43.284Z,9.25
2019-05-16T11:57:43.284Z,9.31
2019-05-16T11:58:43.286Z,9.31
2019-05-16T11:59:43.309Z,9.42
2019-05-16T12:00:43.273Z,9.30
2019-05-16T12:01:43.285Z,9.40
2019-05-16T12:02:43.269Z,9.39
2019-05-16T12:03:43.269Z,9.39
2019-05-16T12:04:43.292Z,9.40
2019-05-16T12:05:43.261Z,9.21
2019-05-16T12:06:43.265Z,9.21
2019-05-16T12:07:44.533Z,9.15
2019-05-16T12:08:43.254Z,9.30
2019-05-16T12:09:50.620Z,9.21
2019-05-16T12:10:43.253Z,9.25
2019-05-16T12:11:43.255Z,9.20
2019-05-16T12:12:43.933Z,9.23
2019-05-16T12:13:43.249Z,9.23
2019-05-16T12:14:43.277Z,9.23
2019-05-16T12:15:43.246Z,9.31
2019-05-16T12:16:43.251Z,9.27
2019-05-16T12:17:43.246Z,9.25
2019-05-16T12:18:43.239Z,9.48
2019-05-16T12:19:44.046Z,9.50
2019-05-16T12:20:43.239Z,9.68
2019-05-16T12:21:43.235Z,9.68
2019-05-16T12:22:43.229Z,9.89
2019-05-16T12:23:43.230Z,9.96
2019-05-16T12:24:43.256Z,10.06
2019-05-16T12:25:43.229Z,10.18
2019-05-16T12:26:43.253Z,10.33
2019-05-16T12:27:43.223Z,10.26
2019-05-16T12:28:43.224Z,10.40
2019-05-16T12:29:43.251Z,10.62
2019-05-16T12:30:43.218Z,10.65
2019-05-16T12:31:55.411Z,10.80
2019-05-16T12:32:43.210Z,10.86
2019-05-16T12:33:43.239Z,10.92
2019-05-16T12:34:43.215Z,10.96
2019-05-16T12:35:43.299Z,10.80
2019-05-16T12:36:43.210Z,10.80
2019-05-16T12:37:43.208Z,10.76
2019-05-16T12:38:43.216Z,10.63
2019-05-16T12:39:43.203Z,10.40
2019-05-16T12:40:43.234Z,10.28
2019-05-16T12:41:43.218Z,10.21
2019-05-16T12:42:43.203Z,10.15
2019-05-16T12:43:49.430Z,9.86
2019-05-16T12:44:43.219Z,9.66
2019-05-16T12:45:43.235Z,9.64
2019-05-16T12:46:43.203Z,9.71
2019-05-16T12:47:43.198Z,9.56
2019-05-16T12:48:43.207Z,9.57
2019-05-16T12:49:43.199Z,9.52
2019-05-16T12:50:43.223Z,9.38
2019-05-16T12:51:43.196Z,9.38
2019-05-16T12:52:43.206Z,9.38
2019-05-16T12:53:43.195Z,9.52
2019-05-16T12:54:43.201Z,9.45
2019-05-16T12:55:43.224Z,9.39
2019-05-16T12:56:43.196Z,9.46
2019-05-16T12:57:43.187Z,9.58
2019-05-16T12:58:43.230Z,9.66
2019-05-16T12:59:51.946Z,9.66
2019-05-16T13:00:44.202Z,9.58
2019-05-16T13:01:43.185Z,9.56
2019-05-16T13:02:43.180Z,9.58
2019-05-16T13:03:43.179Z,9.82
2019-05-16T13:04:43.188Z,9.94
2019-05-16T13:05:43.217Z,9.94
2019-05-16T13:06:43.173Z,10.00
2019-05-16T13:07:43.175Z,10.15
2019-05-16T13:08:43.178Z,10.17
2019-05-16T13:09:43.172Z,10.25
2019-05-16T13:10:43.196Z,10.32
2019-05-16T13:11:43.944Z,10.30
2019-05-16T13:12:43.173Z,10.39
2019-05-16T13:14:01.371Z,10.47
2019-05-16T13:14:43.164Z,10.44
2019-05-16T13:15:43.200Z,10.56
2019-05-16T13:16:43.192Z,10.58
2019-05-16T13:17:43.167Z,10.56